Time;durP1;ratioP1;P1;durP2;ratioP2;P2;SDS_P1;SDS_P2;PMS_P1;PMS_P2;Temp;Humidity;BMP_temperature;BMP_pressure;BME280_temperature;BME280_humidity;BME280_pressure;Samples;Min_cycle;Max_cycle;Signal;HPM_P1;HPM_P2
2023/02/22 00:00:18;;;;;;;7.88;5.13;;;;;;;;;;5031646;28;20021;-73
2023/02/22 00:02:44;;;;;;;9.18;5.63;;;;;;;;;;5031324;28;20048;-73
2023/02/22 00:05:14;;;;;;;9.10;5.93;;;;;;;;;;5031194;28;20029;-73
2023/02/22 00:07:40;;;;;;;7.35;5.47;;;;;;;;;;5030573;28;20399;-73
2023/02/22 00:10:12;;;;;;;10.82;5.40;;;;;;;;;;5031388;28;20075;-74
2023/02/22 00:12:38;;;;;;;8.43;6.03;;;;;;;;;;5023972;28;20052;-74
2023/02/22 00:15:04;;;;;;;8.30;5.53;;;;;;;;;;5012402;28;20464;-74
2023/02/22 00:17:30;;;;;;;8.52;5.53;;;;;;;;;;5018333;28;20021;-72
2023/02/22 00:19:56;;;;;;;8.63;5.38;;;;;;;;;;5028738;28;20082;-72
2023/02/22 00:22:22;;;;;;;8.48;6.15;;;;;;;;;;5027265;28;20041;-72
2023/02/22 00:24:49;;;;;;;9.55;6.00;;;;;;;;;;5030806;28;20033;-72
2023/02/22 00:27:15;;;;;;;7.95;5.22;;;;;;;;;;5030440;28;20076;-72
2023/02/22 00:29:45;;;;;;;9.52;5.90;;;;;;;;;;5030393;28;20108;-73
2023/02/22 00:32:11;;;;;;;9.98;6.03;;;;;;;;;;5016608;28;20484;-74
2023/02/22 00:34:37;;;;;;;8.07;5.57;;;;;;;;;;5011524;28;20080;-73
2023/02/22 00:37:03;;;;;;;8.25;5.82;;;;;;;;;;5011674;28;20030;-72
2023/02/22 00:39:31;;;;;;;7.93;5.65;;;;;;;;;;5012469;28;20046;-75
2023/02/22 00:42:00;;;;;;;8.30;5.60;;;;;;;;;;5012801;28;20088;-73
2023/02/22 00:44:26;;;;;;;8.18;5.82;;;;;;;;;;5011372;28;20026;-72
2023/02/22 00:46:53;;;;;;;10.13;5.97;;;;;;;;;;4993751;28;20443;-72
2023/02/22 00:49:19;;;;;;;9.55;5.85;;;;;;;;;;5025048;28;20017;-73
2023/02/22 00:51:45;;;;;;;8.35;5.60;;;;;;;;;;5029337;28;20022;-74
2023/02/22 00:54:13;;;;;;;8.02;5.65;;;;;;;;;;5030714;28;20038;-73
2023/02/22 00:56:39;;;;;;;9.23;5.75;;;;;;;;;;5029576;28;20022;-74
2023/02/22 00:59:05;;;;;;;9.43;6.15;;;;;;;;;;5029908;28;20021;-73
2023/02/22 01:01:31;;;;;;;10.88;6.18;;;;;;;;;;5030676;28;20357;-73
2023/02/22 01:03:57;;;;;;;11.02;6.38;;;;;;;;;;5030416;28;20467;-73
2023/02/22 01:06:23;;;;;;;11.23;5.93;;;;;;;;;;5088541;22;20078;-76
2023/02/22 01:08:49;;;;;;;12.30;7.18;;;;;;;;;;5069786;28;20052;-77
2023/02/22 01:11:16;;;;;;;9.38;6.80;;;;;;;;;;5070652;28;20032;-78
2023/02/22 01:13:44;;;;;;;9.38;6.38;;;;;;;;;;5070628;28;20234;-77
2023/02/22 01:16:10;;;;;;;10.90;7.10;;;;;;;;;;5070621;28;20462;-76
2023/02/22 01:18:36;;;;;;;9.30;6.60;;;;;;;;;;5069919;28;20475;-76
2023/02/22 01:21:07;;;;;;;11.30;6.63;;;;;;;;;;5069229;28;20039;-77
2023/02/22 01:23:33;;;;;;;9.88;6.47;;;;;;;;;;5069236;28;20033;-76
2023/02/22 01:25:59;;;;;;;13.23;6.93;;;;;;;;;;5070639;28;20036;-76
2023/02/22 01:28:25;;;;;;;9.57;7.22;;;;;;;;;;5069933;28;20378;-76
2023/02/22 01:30:51;;;;;;;12.20;6.78;;;;;;;;;;5070431;28;20039;-76
2023/02/22 01:33:17;;;;;;;9.63;6.68;;;;;;;;;;5070395;28;20074;-76
2023/02/22 01:35:45;;;;;;;8.73;6.07;;;;;;;;;;5070575;28;20047;-77
2023/02/22 01:38:12;;;;;;;11.23;7.13;;;;;;;;;;5068480;28;20036;-76
2023/02/22 01:40:42;;;;;;;9.15;6.75;;;;;;;;;;5071443;28;20066;-76
2023/02/22 01:43:14;;;;;;;11.65;7.05;;;;;;;;;;5073999;28;20031;-77
2023/02/22 01:45:46;;;;;;;9.07;5.85;;;;;;;;;;5074018;28;20029;-76
2023/02/22 01:48:31;;;;;;;10.38;6.90;;;;;;;;;;5072983;28;20074;-77
2023/02/22 01:51:09;;;;;;;9.68;6.00;;;;;;;;;;5072642;28;20047;-77
2023/02/22 01:53:37;;;;;;;11.93;7.43;;;;;;;;;;5073769;28;20154;-76
2023/02/22 01:56:03;;;;;;;10.10;6.55;;;;;;;;;;5073890;28;20064;-76
2023/02/22 01:58:32;;;;;;;10.63;6.88;;;;;;;;;;5071823;28;20017;-76
2023/02/22 02:01:00;;;;;;;9.82;6.60;;;;;;;;;;5073708;28;20104;-76
2023/02/22 02:03:28;;;;;;;11.07;6.72;;;;;;;;;;5072322;28;20486;-77
2023/02/22 02:05:56;;;;;;;12.35;7.15;;;;;;;;;;5073720;28;20040;-77
2023/02/22 02:08:31;;;;;;;10.93;7.00;;;;;;;;;;5071336;28;20078;-78
2023/02/22 02:10:57;;;;;;;9.13;6.68;;;;;;;;;;5073559;28;20461;-76
2023/02/22 02:13:25;;;;;;;17.80;7.50;;;;;;;;;;5073058;28;20107;-76
2023/02/22 02:15:53;;;;;;;9.32;6.28;;;;;;;;;;5073562;28;20078;-77
2023/02/22 02:18:19;;;;;;;9.93;6.75;;;;;;;;;;5072625;28;20070;-76
2023/02/22 02:20:58;;;;;;;10.95;6.78;;;;;;;;;;5071990;28;20025;-76
2023/02/22 02:23:28;;;;;;;9.20;6.53;;;;;;;;;;5073047;28;20116;-76
2023/02/22 02:26:02;;;;;;;9.95;6.25;;;;;;;;;;5071609;28;20501;-76
2023/02/22 02:28:40;;;;;;;10.40;6.50;;;;;;;;;;5071139;28;20032;-77
2023/02/22 02:31:06;;;;;;;12.77;6.50;;;;;;;;;;5073095;28;20024;-75
2023/02/22 02:33:51;;;;;;;10.15;6.53;;;;;;;;;;5072712;28;20051;-76
2023/02/22 02:36:29;;;;;;;10.73;6.65;;;;;;;;;;5071455;28;20016;-74
2023/02/22 02:39:18;;;;;;;10.40;6.00;;;;;;;;;;5072257;28;20082;-75
2023/02/22 02:41:49;;;;;;;13.25;7.22;;;;;;;;;;5073055;28;20398;-74
2023/02/22 02:44:34;;;;;;;10.63;6.50;;;;;;;;;;5072782;28;20021;-75
2023/02/22 02:47:13;;;;;;;9.90;7.07;;;;;;;;;;5072716;28;20029;-73
2023/02/22 02:49:48;;;;;;;10.50;6.78;;;;;;;;;;5072565;28;20017;-76
2023/02/22 02:52:16;;;;;;;11.23;7.38;;;;;;;;;;5075274;28;20028;-75
2023/02/22 02:54:42;;;;;;;11.02;6.80;;;;;;;;;;5074411;28;20024;-75
2023/02/22 02:57:08;;;;;;;12.18;7.63;;;;;;;;;;5073528;28;20070;-76
2023/02/22 02:59:38;;;;;;;12.98;7.18;;;;;;;;;;5071516;28;20496;-76
2023/02/22 03:02:13;;;;;;;11.75;6.68;;;;;;;;;;5073381;28;20437;-74
2023/02/22 03:04:55;;;;;;;10.18;6.72;;;;;;;;;;5075230;28;20059;-74
2023/02/22 03:07:21;;;;;;;;;;;;;;;;;;5076870;28;20028;-75
2023/02/22 03:10:05;;;;;;;10.23;6.65;;;;;;;;;;5073802;28;19908;-73
2023/02/22 03:12:48;;;;;;;10.45;6.68;;;;;;;;;;5081225;28;20312;-74
2023/02/22 03:15:31;;;;;;;12.93;7.35;;;;;;;;;;5083213;28;20104;-74
2023/02/22 03:18:16;;;;;;;13.40;7.82;;;;;;;;;;5073061;28;20028;-75
2023/02/22 03:21:00;;;;;;;13.20;7.70;;;;;;;;;;5072194;28;20556;-75
2023/02/22 03:23:33;;;;;;;11.45;7.35;;;;;;;;;;5077573;28;20029;-74
2023/02/22 03:26:11;;;;;;;12.13;7.13;;;;;;;;;;5074683;28;20037;-75
2023/02/22 03:28:39;;;;;;;10.13;7.38;;;;;;;;;;5073725;28;20496;-76
2023/02/22 03:31:09;;;;;;;11.73;7.28;;;;;;;;;;5070807;28;20040;-76
2023/02/22 03:33:35;;;;;;;12.05;7.55;;;;;;;;;;5071961;28;20032;-76
2023/02/22 03:36:27;;;;;;;10.85;7.15;;;;;;;;;;5071819;28;20021;-77
2023/02/22 03:38:56;;;;;;;10.38;6.70;;;;;;;;;;5068880;28;20090;-77
2023/02/22 03:41:24;;;;;;;10.55;6.88;;;;;;;;;;5072080;28;20049;-77
2023/02/22 03:43:53;;;;;;;10.25;7.00;;;;;;;;;;5071792;28;20063;-76
2023/02/22 03:46:19;;;;;;;8.25;6.07;;;;;;;;;;5071553;28;20534;-77
2023/02/22 03:48:53;;;;;;;9.65;7.00;;;;;;;;;;5071080;28;20028;-77
2023/02/22 03:51:19;;;;;;;13.07;7.97;;;;;;;;;;5071456;28;20055;-76
2023/02/22 03:53:46;;;;;;;10.75;6.93;;;;;;;;;;5071315;28;20025;-76
2023/02/22 03:56:14;;;;;;;11.38;7.72;;;;;;;;;;5071634;28;20082;-76
2023/02/22 03:58:43;;;;;;;10.98;7.18;;;;;;;;;;5069426;28;20024;-77
2023/02/22 04:01:09;;;;;;;10.60;7.18;;;;;;;;;;5071471;28;20401;-75
2023/02/22 04:03:35;;;;;;;11.48;7.65;;;;;;;;;;5070988;28;20456;-77
2023/02/22 04:06:02;;;;;;;11.10;7.25;;;;;;;;;;5071139;28;20037;-76
2023/02/22 04:08:29;;;;;;;11.43;7.75;;;;;;;;;;5070893;28;20137;-76
2023/02/22 04:10:55;;;;;;;14.55;7.82;;;;;;;;;;5071188;28;20068;-76
2023/02/22 04:13:21;;;;;;;11.25;7.50;;;;;;;;;;5071426;28;20052;-76
2023/02/22 04:15:47;;;;;;;12.90;7.40;;;;;;;;;;5071104;28;20490;-76
2023/02/22 04:18:13;;;;;;;13.48;8.02;;;;;;;;;;5070398;28;20029;-75
2023/02/22 04:20:39;;;;;;;12.80;8.60;;;;;;;;;;5071242;28;20393;-75
2023/02/22 04:23:05;;;;;;;13.30;8.40;;;;;;;;;;5071293;28;20026;-77
2023/02/22 04:25:31;;;;;;;13.00;7.65;;;;;;;;;;5071195;28;20028;-77
2023/02/22 04:27:57;;;;;;;12.13;7.95;;;;;;;;;;5070492;28;20028;-75
2023/02/22 04:30:23;;;;;;;14.27;8.35;;;;;;;;;;5071126;28;20024;-75
2023/02/22 04:32:49;;;;;;;12.05;8.05;;;;;;;;;;5069528;28;20101;-75
2023/02/22 04:35:15;;;;;;;14.13;8.45;;;;;;;;;;5070999;28;20025;-76
2023/02/22 04:37:41;;;;;;;16.27;8.48;;;;;;;;;;5070555;28;20021;-76
2023/02/22 04:40:08;;;;;;;13.32;8.02;;;;;;;;;;5072050;28;20054;-77
2023/02/22 04:42:34;;;;;;;14.68;8.60;;;;;;;;;;5060246;28;20489;-74
2023/02/22 04:45:00;;;;;;;12.52;8.25;;;;;;;;;;5051147;28;20024;-75
2023/02/22 04:47:26;;;;;;;14.20;8.18;;;;;;;;;;5060270;28;20531;-75
2023/02/22 04:49:52;;;;;;;14.15;8.88;;;;;;;;;;5071038;28;20029;-77
2023/02/22 04:52:18;;;;;;;15.45;8.63;;;;;;;;;;5071365;28;20029;-76
2023/02/22 04:54:45;;;;;;;22.65;14.70;;;;;;;;;;5071244;28;20024;-78
2023/02/22 04:57:11;;;;;;;13.82;9.30;;;;;;;;;;5070826;28;20624;-77
2023/02/22 04:59:37;;;;;;;13.90;8.85;;;;;;;;;;5070793;28;20036;-76
2023/02/22 05:02:03;;;;;;;15.02;9.10;;;;;;;;;;5070960;28;20021;-78
2023/02/22 05:04:29;;;;;;;12.57;8.43;;;;;;;;;;5071031;28;20044;-77
2023/02/22 05:06:55;;;;;;;15.38;8.95;;;;;;;;;;5071044;28;20540;-77
2023/02/22 05:09:21;;;;;;;21.75;9.27;;;;;;;;;;5070547;28;20421;-76
2023/02/22 05:11:48;;;;;;;15.02;8.70;;;;;;;;;;5051005;28;20025;-77
2023/02/22 05:14:14;;;;;;;13.00;8.32;;;;;;;;;;5050612;28;20025;-76
2023/02/22 05:16:40;;;;;;;12.70;7.85;;;;;;;;;;5053602;28;20017;-77
2023/02/22 05:19:06;;;;;;;13.23;8.65;;;;;;;;;;5053934;28;20044;-76
2023/02/22 05:21:32;;;;;;;13.73;8.02;;;;;;;;;;5054511;28;20067;-75
2023/02/22 05:23:58;;;;;;;15.30;9.27;;;;;;;;;;5073504;28;20461;-76
2023/02/22 05:26:24;;;;;;;14.80;8.75;;;;;;;;;;5073093;28;20111;-75
2023/02/22 05:28:50;;;;;;;15.70;9.38;;;;;;;;;;5073717;28;20027;-76
2023/02/22 05:31:16;;;;;;;14.00;8.60;;;;;;;;;;5073981;28;20047;-77
2023/02/22 05:33:42;;;;;;;13.80;9.40;;;;;;;;;;5074170;28;20489;-76
2023/02/22 05:36:08;;;;;;;13.77;9.38;;;;;;;;;;5072576;28;20031;-75
2023/02/22 05:38:42;;;;;;;15.75;9.90;;;;;;;;;;5073228;28;20021;-75
2023/02/22 05:41:08;;;;;;;12.90;8.95;;;;;;;;;;5074070;28;20031;-76
2023/02/22 05:43:34;;;;;;;13.82;8.52;;;;;;;;;;5073606;28;20025;-75
2023/02/22 05:46:00;;;;;;;15.25;9.07;;;;;;;;;;5074035;28;20082;-76
2023/02/22 05:48:26;;;;;;;13.65;8.48;;;;;;;;;;5073072;28;20371;-76
2023/02/22 05:50:52;;;;;;;15.00;8.88;;;;;;;;;;5073956;28;20032;-74
2023/02/22 05:53:18;;;;;;;13.82;8.52;;;;;;;;;;5074222;28;20029;-76
2023/02/22 05:55:44;;;;;;;17.67;9.32;;;;;;;;;;5073646;28;20375;-74
2023/02/22 05:58:10;;;;;;;14.60;9.02;;;;;;;;;;5073061;28;20490;-76
2023/02/22 06:00:36;;;;;;;13.80;8.32;;;;;;;;;;5074324;28;20029;-77
2023/02/22 06:03:06;;;;;;;15.40;9.27;;;;;;;;;;5073621;28;20060;-76
2023/02/22 06:05:34;;;;;;;17.70;10.68;;;;;;;;;;5073464;28;20044;-75
2023/02/22 06:08:02;;;;;;;17.88;11.00;;;;;;;;;;5073401;28;20025;-77
2023/02/22 06:10:28;;;;;;;17.00;10.50;;;;;;;;;;5073547;28;20025;-76
2023/02/22 06:12:55;;;;;;;19.60;10.55;;;;;;;;;;5073316;28;20474;-76
2023/02/22 06:15:22;;;;;;;18.83;10.65;;;;;;;;;;5066162;28;20032;-76
2023/02/22 06:17:48;;;;;;;22.40;12.48;;;;;;;;;;5070053;28;20427;-75
2023/02/22 06:20:17;;;;;;;24.95;10.65;;;;;;;;;;5070907;28;20063;-75
2023/02/22 06:22:44;;;;;;;21.13;10.48;;;;;;;;;;5073769;28;20068;-76
2023/02/22 06:25:13;;;;;;;22.88;11.18;;;;;;;;;;5073671;28;20035;-77
2023/02/22 06:27:39;;;;;;;23.48;12.77;;;;;;;;;;5072492;28;20492;-76
2023/02/22 06:30:05;;;;;;;22.02;12.90;;;;;;;;;;5073379;28;20115;-76
2023/02/22 06:32:31;;;;;;;20.55;12.00;;;;;;;;;;5073209;28;20504;-76
2023/02/22 06:34:57;;;;;;;24.40;11.23;;;;;;;;;;5075037;28;20108;-76
2023/02/22 06:37:23;;;;;;;18.52;10.27;;;;;;;;;;5074662;28;20096;-75
2023/02/22 06:39:49;;;;;;;19.50;11.73;;;;;;;;;;5073978;28;20028;-73
2023/02/22 06:42:15;;;;;;;19.00;12.00;;;;;;;;;;5056258;28;20025;-76
2023/02/22 06:44:41;;;;;;;18.27;11.93;;;;;;;;;;5051717;28;20032;-75
2023/02/22 06:47:07;;;;;;;21.83;11.07;;;;;;;;;;5052118;28;20025;-74
2023/02/22 06:49:33;;;;;;;15.23;10.93;;;;;;;;;;5052588;28;20487;-77
2023/02/22 06:51:59;;;;;;;19.20;12.85;;;;;;;;;;5051392;28;20471;-76
2023/02/22 06:54:26;;;;;;;17.70;11.40;;;;;;;;;;5064848;28;20028;-74
2023/02/22 06:56:52;;;;;;;17.80;11.48;;;;;;;;;;5070706;28;20081;-77
2023/02/22 06:59:18;;;;;;;20.00;13.40;;;;;;;;;;5070191;28;20499;-77
2023/02/22 07:01:44;;;;;;;22.48;11.93;;;;;;;;;;5056417;28;20544;-77
2023/02/22 07:04:10;;;;;;;17.83;11.07;;;;;;;;;;5051166;28;20028;-77
2023/02/22 07:06:36;;;;;;;17.38;11.35;;;;;;;;;;5062534;22;20095;-72
2023/02/22 07:09:03;;;;;;;21.55;11.32;;;;;;;;;;5031499;28;20029;-72
2023/02/22 07:11:29;;;;;;;22.98;11.55;;;;;;;;;;5032741;28;20018;-72
2023/02/22 07:13:55;;;;;;;18.38;10.95;;;;;;;;;;5032202;28;20029;-72
2023/02/22 07:16:21;;;;;;;17.45;10.70;;;;;;;;;;5032212;28;20025;-73
2023/02/22 07:18:48;;;;;;;18.67;11.55;;;;;;;;;;5030063;28;20502;-73
2023/02/22 07:21:14;;;;;;;16.63;9.93;;;;;;;;;;5032199;28;20109;-73
2023/02/22 07:23:40;;;;;;;19.63;12.55;;;;;;;;;;5032100;28;20105;-73
2023/02/22 07:26:06;;;;;;;16.75;10.93;;;;;;;;;;5031860;28;20119;-72
2023/02/22 07:28:32;;;;;;;17.20;11.50;;;;;;;;;;5031069;28;20508;-73
2023/02/22 07:30:58;;;;;;;20.35;11.63;;;;;;;;;;5030463;28;20127;-72
2023/02/22 07:33:25;;;;;;;20.00;11.77;;;;;;;;;;5031832;28;20164;-73
2023/02/22 07:35:51;;;;;;;21.25;11.40;;;;;;;;;;5031849;28;20023;-73
2023/02/22 07:38:18;;;;;;;15.88;9.27;;;;;;;;;;5030213;28;20108;-73
2023/02/22 07:40:44;;;;;;;16.63;10.48;;;;;;;;;;5031902;28;20021;-73
2023/02/22 07:43:13;;;;;;;17.85;11.05;;;;;;;;;;5032032;28;20120;-73
2023/02/22 07:45:39;;;;;;;14.70;10.40;;;;;;;;;;5031806;28;20096;-73
2023/02/22 07:48:05;;;;;;;20.50;11.45;;;;;;;;;;5031194;28;20325;-73
2023/02/22 07:50:32;;;;;;;18.98;11.18;;;;;;;;;;5030306;28;20091;-73
2023/02/22 07:52:59;;;;;;;17.33;10.20;;;;;;;;;;5031395;28;20033;-73
2023/02/22 07:55:27;;;;;;;13.75;10.10;;;;;;;;;;5031295;28;20028;-72
2023/02/22 07:57:53;;;;;;;17.67;10.07;;;;;;;;;;5030755;28;20029;-73
2023/02/22 08:00:30;;;;;;;14.40;10.07;;;;;;;;;;5031859;28;20033;-73
2023/02/22 08:02:57;;;;;;;20.95;10.38;;;;;;;;;;5031392;28;20029;-73
2023/02/22 08:05:24;;;;;;;20.73;10.80;;;;;;;;;;5031061;28;20072;-73
2023/02/22 08:07:50;;;;;;;18.50;12.07;;;;;;;;;;5030897;28;20033;-72
2023/02/22 08:10:18;;;;;;;19.63;11.48;;;;;;;;;;5031545;28;20025;-73
2023/02/22 08:12:44;;;;;;;19.38;11.75;;;;;;;;;;5031081;28;20373;-72
2023/02/22 08:15:15;;;;;;;21.65;13.10;;;;;;;;;;5031258;28;20021;-72
2023/02/22 08:17:41;;;;;;;22.73;12.60;;;;;;;;;;5028980;28;20049;-73
2023/02/22 08:20:07;;;;;;;17.08;11.35;;;;;;;;;;5030941;28;20495;-73
2023/02/22 08:22:33;;;;;;;21.80;10.93;;;;;;;;;;5031099;28;20026;-73
2023/02/22 08:24:59;;;;;;;20.70;12.00;;;;;;;;;;5030933;28;20022;-73
2023/02/22 08:27:27;;;;;;;19.75;12.27;;;;;;;;;;5028672;28;20049;-73
2023/02/22 08:29:53;;;;;;;19.77;12.35;;;;;;;;;;5031182;28;20033;-72
2023/02/22 08:32:19;;;;;;;19.50;12.27;;;;;;;;;;5030961;28;20029;-72
2023/02/22 08:34:45;;;;;;;23.17;12.35;;;;;;;;;;5031202;28;20029;-73
2023/02/22 08:37:11;;;;;;;21.88;12.48;;;;;;;;;;5030225;28;20037;-74
2023/02/22 08:39:37;;;;;;;19.95;12.43;;;;;;;;;;5031108;28;20018;-73
2023/02/22 08:42:04;;;;;;;21.02;13.70;;;;;;;;;;5031060;28;20032;-74
2023/02/22 08:44:29;;;;;;;24.00;12.35;;;;;;;;;;5035197;28;20438;-74
2023/02/22 08:46:55;;;;;;;21.08;12.88;;;;;;;;;;5050020;28;20280;-74
2023/02/22 08:49:23;;;;;;;23.40;13.20;;;;;;;;;;5050061;28;20479;-74
2023/02/22 08:51:49;;;;;;;18.63;11.50;;;;;;;;;;5056105;28;20041;-75
2023/02/22 08:54:17;;;;;;;24.75;12.45;;;;;;;;;;5057963;28;20036;-73
2023/02/22 08:56:43;;;;;;;19.02;12.00;;;;;;;;;;5055401;28;20021;-73
2023/02/22 08:59:09;;;;;;;23.65;12.40;;;;;;;;;;5046153;28;20119;-73
2023/02/22 09:01:35;;;;;;;20.00;11.90;;;;;;;;;;5053566;28;20025;-74
2023/02/22 09:04:01;;;;;;;20.23;11.77;;;;;;;;;;5053244;28;20083;-74
2023/02/22 09:06:28;;;;;;;21.27;12.60;;;;;;;;;;5051748;28;20040;-73
2023/02/22 09:08:54;;;;;;;18.67;11.55;;;;;;;;;;5052546;28;20025;-74
2023/02/22 09:11:20;;;;;;;17.67;11.77;;;;;;;;;;5035297;28;20091;-74
2023/02/22 09:13:47;;;;;;;16.95;10.75;;;;;;;;;;5033066;28;20286;-73
2023/02/22 09:16:13;;;;;;;16.08;10.48;;;;;;;;;;5033382;28;20029;-76
2023/02/22 09:18:39;;;;;;;12.98;9.48;;;;;;;;;;5041040;28;20025;-75
2023/02/22 09:21:05;;;;;;;16.92;10.65;;;;;;;;;;5053194;28;20032;-74
2023/02/22 09:23:31;;;;;;;13.02;9.85;;;;;;;;;;5052858;28;20029;-77
2023/02/22 09:26:00;;;;;;;12.82;9.82;;;;;;;;;;5054824;28;20147;-76
2023/02/22 09:28:28;;;;;;;17.92;10.65;;;;;;;;;;5042964;28;20487;-74
2023/02/22 09:30:55;;;;;;;13.23;9.77;;;;;;;;;;5034311;28;20033;-74
2023/02/22 09:33:21;;;;;;;15.00;9.75;;;;;;;;;;5033883;28;20101;-75
2023/02/22 09:35:51;;;;;;;13.95;9.73;;;;;;;;;;5034978;28;20021;-75
2023/02/22 09:38:23;;;;;;;18.17;10.75;;;;;;;;;;5033104;28;20021;-75
2023/02/22 09:40:51;;;;;;;15.73;10.18;;;;;;;;;;5036476;28;20049;-75
2023/02/22 09:43:17;;;;;;;16.85;11.15;;;;;;;;;;5040260;28;20029;-75
2023/02/22 09:45:47;;;;;;;14.98;10.68;;;;;;;;;;5037932;28;20029;-75
2023/02/22 09:48:14;;;;;;;16.63;10.35;;;;;;;;;;5034793;28;20087;-74
2023/02/22 09:50:42;;;;;;;15.95;10.05;;;;;;;;;;5034532;28;20029;-76
2023/02/22 09:53:28;;;;;;;15.48;10.70;;;;;;;;;;5032832;28;20028;-74
2023/02/22 09:55:56;;;;;;;16.73;10.77;;;;;;;;;;5032547;28;20025;-75
2023/02/22 09:58:24;;;;;;;17.20;11.00;;;;;;;;;;5033251;28;20018;-75
2023/02/22 10:00:54;;;;;;;14.90;10.40;;;;;;;;;;5033812;28;20037;-74
2023/02/22 10:03:34;;;;;;;17.55;10.52;;;;;;;;;;5034409;28;20022;-74
2023/02/22 10:06:02;;;;;;;13.88;10.05;;;;;;;;;;5032331;28;20037;-75
2023/02/22 10:08:32;;;;;;;16.83;11.60;;;;;;;;;;5031477;28;20499;-75
2023/02/22 10:11:21;;;;;;;19.23;11.20;;;;;;;;;;5019006;28;20260;-75
2023/02/22 10:13:56;;;;;;;19.13;10.77;;;;;;;;;;4994142;28;20544;-74
2023/02/22 10:16:28;;;;;;;17.27;11.88;;;;;;;;;;5013751;28;20034;-74
2023/02/22 10:18:55;;;;;;;21.08;11.63;;;;;;;;;;5012816;28;20037;-74
2023/02/22 10:21:22;;;;;;;16.55;11.20;;;;;;;;;;5013665;28;20443;-74
2023/02/22 10:23:57;;;;;;;15.38;10.77;;;;;;;;;;5013742;28;20399;-74
2023/02/22 10:26:32;;;;;;;18.85;10.88;;;;;;;;;;5013442;28;20077;-73
2023/02/22 10:29:00;;;;;;;18.83;11.82;;;;;;;;;;5028048;28;20018;-74
2023/02/22 10:31:28;;;;;;;14.25;10.30;;;;;;;;;;5033030;28;20475;-73
2023/02/22 10:33:59;;;;;;;17.63;10.90;;;;;;;;;;5032943;28;20029;-74
2023/02/22 10:36:25;;;;;;;14.60;9.63;;;;;;;;;;5031733;28;20025;-74
2023/02/22 10:38:58;;;;;;;15.45;9.98;;;;;;;;;;5031074;28;20053;-74
2023/02/22 10:41:31;;;;;;;15.80;10.18;;;;;;;;;;5033598;28;20032;-73
2023/02/22 10:43:57;;;;;;;17.48;10.23;;;;;;;;;;5032836;28;20388;-73
2023/02/22 10:46:27;;;;;;;19.83;10.55;;;;;;;;;;5033044;28;20430;-74
2023/02/22 10:48:56;;;;;;;15.55;9.38;;;;;;;;;;5032344;28;20156;-74
2023/02/22 10:51:22;;;;;;;14.90;9.93;;;;;;;;;;5031268;28;20481;-74
2023/02/22 10:54:01;;;;;;;15.68;10.20;;;;;;;;;;5032484;28;20045;-74
2023/02/22 10:56:27;;;;;;;15.40;10.10;;;;;;;;;;5032529;28;20246;-74
2023/02/22 10:58:56;;;;;;;15.15;9.38;;;;;;;;;;5031153;28;20091;-75
2023/02/22 11:01:28;;;;;;;11.98;8.73;;;;;;;;;;5032140;28;20399;-75
2023/02/22 11:04:00;;;;;;;12.82;8.65;;;;;;;;;;5031056;28;20064;-74
2023/02/22 11:06:27;;;;;;;13.30;8.77;;;;;;;;;;5031931;28;20044;-75
2023/02/22 11:09:03;;;;;;;15.35;9.13;;;;;;;;;;5030378;28;20588;-74
2023/02/22 11:11:29;;;;;;;15.23;9.07;;;;;;;;;;5036211;28;20586;-74
2023/02/22 11:13:56;;;;;;;18.27;10.18;;;;;;;;;;5033160;28;20534;-75
2023/02/22 11:16:31;;;;;;;18.45;10.23;;;;;;;;;;5032838;28;20539;-74
2023/02/22 11:19:16;;;;;;;17.58;8.93;;;;;;;;;;5033119;28;20099;-74
2023/02/22 11:21:43;;;;;;;13.52;9.90;;;;;;;;;;5041937;28;20446;-74
2023/02/22 11:24:10;;;;;;;13.80;9.23;;;;;;;;;;5034467;28;20033;-74
2023/02/22 11:26:39;;;;;;;12.85;9.20;;;;;;;;;;5024278;28;20029;-74
2023/02/22 11:29:31;;;;;;;15.13;9.10;;;;;;;;;;5033335;28;20138;-74
2023/02/22 11:31:58;;;;;;;11.68;8.80;;;;;;;;;;5031049;28;20558;-75
2023/02/22 11:34:29;;;;;;;13.38;8.55;;;;;;;;;;5031633;28;20051;-73
2023/02/22 11:36:56;;;;;;;13.40;8.65;;;;;;;;;;5031470;28;20029;-75
2023/02/22 11:39:27;;;;;;;11.57;7.88;;;;;;;;;;5047629;28;20479;-75
2023/02/22 11:41:55;;;;;;;9.38;7.20;;;;;;;;;;5042571;28;20025;-73
2023/02/22 11:44:24;;;;;;;9.13;6.25;;;;;;;;;;5032232;28;20501;-74
2023/02/22 11:46:54;;;;;;;9.90;7.38;;;;;;;;;;5031789;28;20057;-74
2023/02/22 11:49:22;;;;;;;7.93;6.45;;;;;;;;;;5031326;28;20026;-74
2023/02/22 11:52:06;;;;;;;14.30;8.02;;;;;;;;;;5035609;28;20472;-75
2023/02/22 11:54:35;;;;;;;10.02;7.38;;;;;;;;;;5034786;28;20112;-73
2023/02/22 11:57:15;;;;;;;9.35;7.03;;;;;;;;;;5031359;28;20022;-74
2023/02/22 11:59:46;;;;;;;6.63;5.88;;;;;;;;;;5031800;28;20415;-75
2023/02/22 12:02:41;;;;;;;6.22;5.13;;;;;;;;;;5031368;28;20040;-74
2023/02/22 12:05:26;;;;;;;4.30;3.83;;;;;;;;;;5031214;28;20480;-74
2023/02/22 12:08:07;;;;;;;4.25;3.67;;;;;;;;;;5029507;28;20040;-75
2023/02/22 12:10:54;;;;;;;4.97;4.13;;;;;;;;;;5031543;28;20080;-75
2023/02/22 12:13:25;;;;;;;8.95;5.63;;;;;;;;;;5031256;28;20027;-74
2023/02/22 12:15:59;;;;;;;9.38;5.63;;;;;;;;;;5031428;28;20021;-74
2023/02/22 12:18:31;;;;;;;6.13;5.07;;;;;;;;;;5030304;28;20097;-75
2023/02/22 12:20:58;;;;;;;7.32;5.50;;;;;;;;;;5023181;28;20039;-74
2023/02/22 12:23:28;;;;;;;6.40;4.95;;;;;;;;;;5042952;28;20394;-74
2023/02/22 12:26:01;;;;;;;8.90;6.10;;;;;;;;;;5027439;28;20026;-74
2023/02/22 12:28:30;;;;;;;9.68;5.55;;;;;;;;;;5030289;28;20025;-75
2023/02/22 12:31:10;;;;;;;8.45;5.45;;;;;;;;;;5045148;28;20079;-74
2023/02/22 12:33:45;;;;;;;6.85;4.65;;;;;;;;;;5031098;28;20030;-74
2023/02/22 12:36:13;;;;;;;7.60;5.28;;;;;;;;;;5032021;28;20018;-74
2023/02/22 12:38:43;;;;;;;8.32;5.47;;;;;;;;;;5035789;28;20048;-73
2023/02/22 12:41:12;;;;;;;8.20;5.60;;;;;;;;;;5052049;28;20013;-73
2023/02/22 12:43:43;;;;;;;9.85;5.05;;;;;;;;;;5036310;28;20025;-74
2023/02/22 12:46:28;;;;;;;7.47;4.93;;;;;;;;;;5045186;28;20017;-74
2023/02/22 12:49:01;;;;;;;6.82;5.13;;;;;;;;;;5053593;28;20060;-74
2023/02/22 12:51:36;;;;;;;7.30;4.93;;;;;;;;;;5053261;28;20151;-74
2023/02/22 12:54:13;;;;;;;5.63;4.80;;;;;;;;;;5047674;28;20025;-73
2023/02/22 12:56:41;;;;;;;7.55;5.40;;;;;;;;;;5031477;28;20025;-75
2023/02/22 12:59:18;;;;;;;6.05;5.03;;;;;;;;;;5031364;28;20055;-74
2023/02/22 13:01:45;;;;;;;5.43;4.55;;;;;;;;;;5030172;28;20024;-74
2023/02/22 13:04:12;;;;;;;6.65;4.13;;;;;;;;;;5031848;28;20156;-74
2023/02/22 13:06:41;;;;;;;5.65;4.43;;;;;;;;;;5064922;22;20048;-75
2023/02/22 13:09:07;;;;;;;6.07;4.95;;;;;;;;;;5061046;28;20017;-76
2023/02/22 13:11:40;;;;;;;6.30;4.70;;;;;;;;;;5077058;28;20108;-76
2023/02/22 13:14:12;;;;;;;6.28;5.22;;;;;;;;;;5071062;28;20035;-76
2023/02/22 13:16:51;;;;;;;4.95;4.53;;;;;;;;;;5069046;28;20031;-77
2023/02/22 13:19:27;;;;;;;8.25;5.20;;;;;;;;;;5064689;28;20021;-77
2023/02/22 13:22:00;;;;;;;7.07;5.00;;;;;;;;;;5087579;28;20502;-77
2023/02/22 13:24:36;;;;;;;6.97;5.30;;;;;;;;;;5071914;28;20028;-77
2023/02/22 13:27:24;;;;;;;6.47;5.10;;;;;;;;;;5071191;28;20032;-75
2023/02/22 13:29:56;;;;;;;6.90;5.13;;;;;;;;;;5071970;28;20509;-76
2023/02/22 13:32:31;;;;;;;6.55;5.22;;;;;;;;;;5071624;28;20025;-77
2023/02/22 13:34:57;;;;;;;5.80;4.53;;;;;;;;;;5073532;28;20029;-75
2023/02/22 13:37:44;;;;;;;6.53;4.43;;;;;;;;;;5088902;28;20017;-77
2023/02/22 13:40:29;;;;;;;7.85;5.13;;;;;;;;;;5095427;28;20032;-77
2023/02/22 13:43:14;;;;;;;6.30;4.72;;;;;;;;;;5086446;28;20033;-78
2023/02/22 13:46:00;;;;;;;8.75;5.00;;;;;;;;;;5086433;28;20494;-76
2023/02/22 13:48:41;;;;;;;8.30;4.68;;;;;;;;;;5061912;28;20036;-77
2023/02/22 13:51:11;;;;;;;6.05;5.05;;;;;;;;;;5075087;28;20177;-76
2023/02/22 13:53:58;;;;;;;7.65;4.80;;;;;;;;;;5074372;28;20029;-75
2023/02/22 13:56:24;;;;;;;12.75;5.70;;;;;;;;;;5074088;28;20547;-76
2023/02/22 13:58:51;;;;;;;4.70;4.10;;;;;;;;;;5073359;28;20051;-78
2023/02/22 14:01:37;;;;;;;4.95;4.35;;;;;;;;;;5074019;28;20108;-77
2023/02/22 14:04:22;;;;;;;5.57;4.20;;;;;;;;;;5074012;28;20355;-77
2023/02/22 14:06:48;;;;;;;5.07;4.00;;;;;;;;;;5073873;28;20032;-76
2023/02/22 14:09:37;;;;;;;5.55;4.15;;;;;;;;;;5067669;28;20161;-77
2023/02/22 14:12:03;;;;;;;5.88;4.18;;;;;;;;;;5050300;28;20108;-76
2023/02/22 14:14:29;;;;;;;5.88;3.97;;;;;;;;;;5052038;28;20158;-77
2023/02/22 14:17:14;;;;;;;6.82;3.65;;;;;;;;;;5050322;28;20063;-77
2023/02/22 14:19:39;;;;;;;5.55;4.25;;;;;;;;;;5034180;28;20021;-76
2023/02/22 14:22:07;;;;;;;5.80;4.47;;;;;;;;;;5048822;28;20100;-76
2023/02/22 14:24:44;;;;;;;5.70;4.38;;;;;;;;;;5052029;28;20028;-76
2023/02/22 14:27:11;;;;;;;6.78;4.57;;;;;;;;;;5051715;28;20025;-76
2023/02/22 14:29:37;;;;;;;10.50;4.45;;;;;;;;;;5053480;28;20376;-76
2023/02/22 14:32:09;;;;;;;5.38;4.13;;;;;;;;;;5053557;28;20091;-77
2023/02/22 14:34:43;;;;;;;4.90;4.13;;;;;;;;;;5053304;28;20036;-76
2023/02/22 14:37:30;;;;;;;5.97;4.03;;;;;;;;;;5052411;28;20499;-76
2023/02/22 14:40:05;;;;;;;8.43;4.70;;;;;;;;;;5053469;28;20040;-76
2023/02/22 14:42:33;;;;;;;6.47;4.30;;;;;;;;;;5053727;28;20529;-76
2023/02/22 14:45:05;;;;;;;7.32;4.65;;;;;;;;;;5053522;28;20028;-76